createdAt,value
2022-08-12T00:00:04.519Z,1.22
2022-08-12T00:01:07.934Z,0.98
2022-08-12T00:02:10.884Z,0.93
2022-08-12T00:03:14.858Z,0.95
2022-08-12T00:04:18.832Z,0.92
2022-08-12T00:05:22.003Z,0.98
2022-08-12T00:06:24.946Z,0.94
2022-08-12T00:07:28.115Z,0.96
2022-08-12T00:08:37.127Z,0.92
2022-08-12T00:09:36.936Z,1.03
2022-08-12T00:10:39.706Z,0.94
2022-08-12T00:11:43.102Z,1.09
2022-08-12T00:12:46.179Z,0.92
2022-08-12T00:13:49.246Z,0.99
2022-08-12T00:14:51.920Z,0.92
2022-08-12T00:15:55.202Z,0.89
2022-08-12T00:16:58.076Z,0.89
2022-08-12T00:18:01.462Z,0.90
2022-08-12T00:19:04.655Z,0.85
2022-08-12T00:20:07.420Z,0.94
2022-08-12T00:21:10.394Z,1.09
2022-08-12T00:22:13.164Z,1.14
2022-08-12T00:23:16.048Z,0.82
2022-08-12T00:24:18.810Z,0.87
2022-08-12T00:25:21.480Z,0.83
2022-08-12T00:26:25.687Z,0.79
2022-08-12T00:27:43.313Z,0.84
2022-08-12T00:28:32.765Z,0.91
2022-08-12T00:29:35.438Z,0.78
2022-08-12T00:30:38.104Z,0.75
2022-08-12T00:31:40.769Z,0.85
2022-08-12T00:32:47.664Z,0.79
2022-08-12T00:33:52.266Z,0.87
2022-08-12T00:34:52.011Z,0.93
2022-08-12T00:35:54.729Z,0.88
2022-08-12T00:37:07.253Z,1.05
2022-08-12T00:38:03.355Z,0.96
2022-08-12T00:39:06.229Z,0.75
2022-08-12T00:40:11.241Z,1.04
2022-08-12T00:41:13.617Z,0.96
2022-08-12T00:42:16.590Z,0.81
2022-08-12T00:43:19.566Z,0.90
2022-08-12T00:44:22.842Z,0.90
2022-08-12T00:45:27.370Z,0.83
2022-08-12T00:46:30.436Z,0.86
2022-08-12T00:47:33.107Z,0.91
2022-08-12T00:48:35.784Z,1.08
2022-08-12T00:49:38.448Z,0.95
2022-08-12T00:50:41.115Z,0.99
2022-08-12T00:51:43.900Z,0.90
2022-08-12T00:52:47.480Z,0.91
2022-08-12T00:53:50.466Z,0.95
2022-08-12T00:54:53.233Z,0.90
2022-08-12T00:55:56.100Z,0.87
2022-08-12T00:56:58.780Z,0.80
2022-08-12T00:58:01.443Z,0.81
2022-08-12T00:59:04.219Z,0.78
2022-08-12T01:00:06.987Z,0.65
2022-08-12T01:01:09.839Z,0.81
2022-08-12T01:02:12.870Z,0.78
2022-08-12T01:03:15.818Z,0.70
2022-08-12T01:04:18.513Z,0.72
2022-08-12T01:05:21.157Z,1.00
2022-08-12T01:06:24.132Z,0.65
2022-08-12T01:07:27.066Z,0.74
2022-08-12T01:08:29.779Z,0.74
2022-08-12T01:09:32.469Z,0.82
2022-08-12T01:10:35.014Z,0.89
2022-08-12T01:11:37.888Z,0.89
2022-08-12T01:12:41.242Z,0.82
2022-08-12T01:13:43.943Z,0.82
2022-08-12T01:14:46.831Z,0.95
2022-08-12T01:15:49.675Z,0.91
2022-08-12T01:16:53.494Z,0.85
2022-08-12T01:17:56.367Z,0.88
2022-08-12T01:18:59.233Z,0.87
2022-08-12T01:20:02.022Z,1.06
2022-08-12T01:21:05.087Z,0.93
2022-08-12T01:22:08.279Z,0.88
2022-08-12T01:23:11.149Z,0.99
2022-08-12T01:24:30.442Z,1.30
2022-08-12T01:25:19.057Z,1.02
2022-08-12T01:26:22.026Z,1.08
2022-08-12T01:27:25.002Z,1.06
2022-08-12T01:28:27.875Z,0.99
2022-08-12T01:29:32.842Z,1.07
2022-08-12T01:30:34.758Z,1.16
2022-08-12T01:31:37.728Z,1.28
2022-08-12T01:32:40.576Z,1.16
2022-08-12T01:33:43.475Z,1.19
2022-08-12T01:34:46.456Z,1.04
2022-08-12T01:36:07.938Z,0.91
2022-08-12T01:36:53.633Z,1.01
2022-08-12T01:37:56.408Z,1.34
2022-08-12T01:38:59.396Z,1.07
2022-08-12T01:40:35.754Z,0.96
2022-08-12T01:41:06.988Z,1.18
2022-08-12T01:42:10.488Z,1.33
2022-08-12T01:43:13.472Z,1.01
2022-08-12T01:44:16.331Z,0.95
2022-08-12T01:45:21.355Z,1.08
2022-08-12T01:46:24.338Z,1.04
2022-08-12T01:47:27.708Z,0.94
2022-08-12T01:48:30.816Z,0.91
2022-08-12T01:49:34.380Z,1.15
2022-08-12T01:50:37.669Z,0.88
2022-08-12T01:52:20.574Z,1.05
2022-08-12T01:52:45.581Z,0.89
2022-08-12T01:53:50.867Z,0.99
2022-08-12T01:54:53.467Z,1.01
2022-08-12T01:55:56.648Z,0.92
2022-08-12T01:56:59.745Z,1.01
2022-08-12T01:58:02.602Z,1.13
2022-08-12T01:59:05.899Z,0.77
2022-08-12T02:00:10.724Z,0.89
2022-08-12T02:01:13.762Z,1.02
2022-08-12T02:02:16.798Z,0.95
2022-08-12T02:03:19.787Z,1.09
2022-08-12T02:04:22.921Z,0.95
2022-08-12T02:05:26.624Z,0.80
2022-08-12T02:06:30.008Z,0.96
2022-08-12T02:07:32.875Z,1.05
2022-08-12T02:08:35.855Z,1.32
2022-08-12T02:09:38.624Z,1.25
2022-08-12T02:10:49.093Z,1.17
2022-08-12T02:11:45.810Z,1.00
2022-08-12T02:12:48.781Z,1.07
2022-08-12T02:13:51.918Z,1.04
2022-08-12T02:14:54.737Z,0.91
2022-08-12T02:15:57.832Z,1.03
2022-08-12T02:17:00.895Z,1.15
2022-08-12T02:18:03.881Z,1.18
2022-08-12T02:19:13.100Z,1.02
2022-08-12T02:20:11.484Z,1.11
2022-08-12T02:21:14.033Z,1.15
2022-08-12T02:22:16.726Z,1.12
2022-08-12T02:23:19.792Z,1.05
2022-08-12T02:24:22.554Z,1.08
2022-08-12T02:25:27.061Z,1.21
2022-08-12T02:26:29.938Z,1.28
2022-08-12T02:27:33.220Z,1.37
2022-08-12T02:28:36.013Z,1.41
2022-08-12T02:29:38.777Z,1.42
2022-08-12T02:30:42.406Z,1.63
2022-08-12T02:31:45.266Z,1.85
2022-08-12T02:32:47.903Z,1.88
2022-08-12T02:33:50.886Z,2.31
2022-08-12T02:34:53.567Z,2.12
2022-08-12T02:35:56.533Z,2.15
2022-08-12T02:37:02.580Z,2.35
2022-08-12T02:38:04.022Z,2.24
2022-08-12T02:39:06.895Z,2.08
2022-08-12T02:40:09.673Z,1.84
2022-08-12T02:41:14.174Z,2.05
2022-08-12T02:42:17.150Z,2.08
2022-08-12T02:43:20.242Z,2.22
2022-08-12T02:44:23.311Z,2.36
2022-08-12T02:45:26.290Z,2.30
2022-08-12T02:46:29.575Z,2.19
2022-08-12T02:47:58.893Z,2.18
2022-08-12T02:48:36.863Z,2.13
2022-08-12T02:49:39.547Z,2.38
2022-08-12T02:50:42.110Z,2.04
2022-08-12T02:51:46.608Z,1.89
2022-08-12T02:52:49.381Z,2.14
2022-08-12T02:54:04.513Z,2.28
2022-08-12T02:54:56.265Z,2.07
2022-08-12T02:55:58.937Z,1.98
2022-08-12T02:57:01.705Z,2.07
2022-08-12T02:58:09.126Z,2.09
2022-08-12T02:59:08.571Z,2.24
2022-08-12T03:00:11.355Z,2.23
2022-08-12T03:01:14.183Z,2.04
2022-08-12T03:02:16.996Z,2.34
2022-08-12T03:03:19.772Z,2.12
2022-08-12T03:04:22.639Z,2.31
2022-08-12T03:05:25.243Z,2.20
2022-08-12T03:06:28.182Z,2.11
2022-08-12T03:07:55.759Z,1.99
2022-08-12T03:08:35.577Z,2.10
2022-08-12T03:09:59.345Z,1.92
2022-08-12T03:10:43.269Z,2.04
2022-08-12T03:11:48.728Z,2.11
2022-08-12T03:12:52.061Z,2.17
2022-08-12T03:13:55.272Z,2.32
2022-08-12T03:14:58.265Z,2.22
2022-08-12T03:16:01.336Z,2.13
2022-08-12T03:17:04.208Z,1.99
2022-08-12T03:18:27.111Z,2.12
2022-08-12T03:19:11.498Z,1.99
2022-08-12T03:20:14.170Z,1.98
2022-08-12T03:21:17.239Z,1.88
2022-08-12T03:22:21.544Z,1.76
2022-08-12T03:23:28.870Z,1.85
2022-08-12T03:24:28.738Z,1.96
2022-08-12T03:25:31.500Z,1.95
2022-08-12T03:26:34.368Z,1.95
2022-08-12T03:27:37.044Z,1.83
2022-08-12T03:28:39.921Z,1.57
2022-08-12T03:29:43.397Z,1.60
2022-08-12T03:30:47.004Z,1.71
2022-08-12T03:31:49.670Z,1.64
2022-08-12T03:32:52.801Z,1.82
2022-08-12T03:34:01.604Z,1.61
2022-08-12T03:35:00.141Z,1.89
2022-08-12T03:36:02.916Z,1.88
2022-08-12T03:37:05.788Z,1.77
2022-08-12T03:38:08.823Z,1.78
2022-08-12T03:39:13.239Z,1.84
2022-08-12T03:40:16.211Z,2.15
2022-08-12T03:41:19.118Z,2.84
2022-08-12T03:42:22.024Z,5.47
2022-08-12T03:43:25.377Z,2.05
2022-08-12T03:44:28.580Z,1.86
2022-08-12T03:45:31.543Z,3.29
2022-08-12T03:46:34.529Z,10.75
2022-08-12T03:47:37.304Z,2.31
2022-08-12T03:48:40.056Z,1.88
2022-08-12T03:49:42.943Z,2.55
2022-08-12T03:50:45.815Z,2.05
2022-08-12T03:51:48.389Z,1.96
2022-08-12T03:52:52.596Z,1.99
2022-08-12T03:53:55.571Z,2.08
2022-08-12T03:54:58.552Z,2.12
2022-08-12T03:56:01.530Z,2.15
2022-08-12T03:57:04.405Z,2.07
2022-08-12T03:58:07.174Z,2.31
2022-08-12T03:59:09.960Z,2.08
2022-08-12T04:00:24.154Z,2.28
2022-08-12T04:01:17.488Z,2.01
2022-08-12T04:02:20.301Z,1.89
2022-08-12T04:03:23.180Z,1.78
2022-08-12T04:04:25.858Z,2.30
2022-08-12T04:05:54.561Z,2.48
2022-08-12T04:06:34.863Z,2.28
2022-08-12T04:07:37.131Z,2.12
2022-08-12T04:08:41.238Z,2.26
2022-08-12T04:09:43.915Z,2.25
2022-08-12T04:10:46.688Z,2.37
2022-08-12T04:11:49.354Z,2.18
2022-08-12T04:12:52.122Z,2.27
2022-08-12T04:13:54.925Z,2.17
2022-08-12T04:14:57.672Z,2.14
2022-08-12T04:16:00.353Z,2.23
2022-08-12T04:17:03.207Z,2.19
2022-08-12T04:18:08.019Z,2.11
2022-08-12T04:19:10.601Z,2.35
2022-08-12T04:20:13.683Z,2.23
2022-08-12T04:21:16.657Z,1.91
2022-08-12T04:22:19.429Z,2.08
2022-08-12T04:23:22.520Z,1.88
2022-08-12T04:24:25.383Z,1.86
2022-08-12T04:25:28.048Z,1.86
2022-08-12T04:26:32.873Z,1.92
2022-08-12T04:27:35.538Z,1.94
2022-08-12T04:28:38.324Z,1.64
2022-08-12T04:30:29.000Z,1.66
2022-08-12T04:30:45.188Z,1.42
2022-08-12T04:31:47.966Z,1.67
2022-08-12T04:32:50.854Z,1.78
2022-08-12T04:33:53.609Z,1.64
2022-08-12T04:34:56.286Z,1.65
2022-08-12T04:35:58.950Z,1.72
2022-08-12T04:37:02.135Z,2.13
2022-08-12T04:38:04.800Z,1.81
2022-08-12T04:39:07.672Z,1.59
2022-08-12T04:40:10.344Z,1.53
2022-08-12T04:41:13.109Z,1.48
2022-08-12T04:42:15.785Z,1.87
2022-08-12T04:43:59.853Z,1.58
2022-08-12T04:44:22.876Z,1.68
2022-08-12T04:45:25.536Z,1.58
2022-08-12T04:46:33.619Z,1.68
2022-08-12T04:47:32.722Z,1.58
2022-08-12T04:48:35.497Z,1.71
2022-08-12T04:49:38.059Z,1.98
2022-08-12T04:50:40.831Z,1.69
2022-08-12T04:51:43.605Z,1.54
2022-08-12T04:52:48.008Z,1.54
2022-08-12T04:53:50.685Z,1.38
2022-08-12T04:54:53.350Z,1.37
2022-08-12T04:55:57.160Z,1.48
2022-08-12T04:57:03.756Z,1.25
2022-08-12T04:58:04.441Z,1.48
2022-08-12T04:59:07.225Z,1.42
2022-08-12T05:00:10.077Z,1.42
2022-08-12T05:01:13.066Z,1.27
2022-08-12T05:02:16.746Z,1.50
2022-08-12T05:03:20.558Z,1.29
2022-08-12T05:04:23.328Z,1.29
2022-08-12T05:05:26.401Z,1.21
2022-08-12T05:06:29.270Z,1.22
2022-08-12T05:07:32.249Z,1.17
2022-08-12T05:08:35.245Z,0.99
2022-08-12T05:10:00.284Z,0.92
2022-08-12T05:10:42.001Z,1.02
2022-08-12T05:11:53.827Z,1.13
2022-08-12T05:12:49.083Z,1.11
2022-08-12T05:13:51.860Z,1.14
2022-08-12T05:14:54.736Z,1.25
2022-08-12T05:16:04.432Z,0.98
2022-08-12T05:17:01.617Z,1.11
2022-08-12T05:18:20.324Z,1.09
2022-08-12T05:19:12.924Z,1.00
2022-08-12T05:20:14.330Z,0.84
2022-08-12T05:21:17.203Z,0.98
2022-08-12T05:22:19.872Z,0.89
2022-08-12T05:23:22.649Z,0.98
2022-08-12T05:24:25.309Z,1.02
2022-08-12T05:25:28.093Z,0.91
2022-08-12T05:26:30.963Z,0.84
2022-08-12T05:27:33.732Z,0.88
2022-08-12T05:28:36.498Z,0.88
2022-08-12T05:30:06.758Z,0.86
2022-08-12T05:30:43.586Z,1.04
2022-08-12T05:31:48.424Z,0.96
2022-08-12T05:32:50.785Z,1.00
2022-08-12T05:33:54.867Z,1.07
2022-08-12T05:34:58.260Z,1.29
2022-08-12T05:36:01.134Z,1.05
2022-08-12T05:37:04.112Z,1.04
2022-08-12T05:38:07.093Z,1.02
2022-08-12T05:39:10.437Z,1.12
2022-08-12T05:40:13.953Z,1.14
2022-08-12T05:41:17.253Z,1.04
2022-08-12T05:42:20.630Z,1.07
2022-08-12T05:43:25.547Z,0.96
2022-08-12T05:44:28.728Z,1.04
2022-08-12T05:45:31.830Z,1.26
2022-08-12T05:46:34.695Z,1.10
2022-08-12T05:47:53.015Z,1.03
2022-08-12T05:48:41.778Z,0.99
2022-08-12T05:49:44.342Z,1.02
2022-08-12T05:50:47.209Z,1.11
2022-08-12T05:51:49.993Z,0.99
2022-08-12T05:52:53.039Z,1.08
2022-08-12T05:53:57.071Z,1.13
2022-08-12T05:55:00.862Z,1.06
2022-08-12T05:56:04.154Z,1.32
2022-08-12T05:57:07.029Z,1.02
2022-08-12T05:58:09.605Z,1.20
2022-08-12T05:59:12.605Z,1.24
2022-08-12T06:00:15.341Z,0.98
2022-08-12T06:02:12.737Z,1.22
2022-08-12T06:02:31.278Z,1.10
2022-08-12T06:03:34.048Z,0.77
2022-08-12T06:04:36.776Z,1.09
2022-08-12T06:05:54.275Z,1.10
2022-08-12T06:06:43.867Z,1.00
2022-08-12T06:08:01.131Z,1.11
2022-08-12T06:08:50.834Z,1.11
2022-08-12T06:09:53.608Z,1.10
2022-08-12T06:10:56.475Z,1.07
2022-08-12T06:12:05.021Z,1.11
2022-08-12T06:13:04.271Z,1.17
2022-08-12T06:14:11.680Z,1.21
2022-08-12T06:15:11.459Z,1.20
2022-08-12T06:16:14.537Z,1.12
2022-08-12T06:17:17.410Z,1.10
2022-08-12T06:18:20.607Z,1.14
2022-08-12T06:19:23.474Z,1.27
2022-08-12T06:20:33.526Z,1.30
2022-08-12T06:21:31.886Z,1.15
2022-08-12T06:22:34.867Z,1.20
2022-08-12T06:23:42.325Z,1.24
2022-08-12T06:24:42.229Z,1.47
2022-08-12T06:25:45.415Z,1.52
2022-08-12T06:26:48.288Z,1.46
2022-08-12T06:28:07.962Z,1.38
2022-08-12T06:28:55.883Z,1.45
2022-08-12T06:30:06.838Z,1.42
2022-08-12T06:32:08.399Z,1.35
2022-08-12T06:33:22.350Z,1.46
2022-08-12T06:35:25.527Z,1.43
2022-08-12T06:35:26.382Z,1.59
2022-08-12T06:36:29.520Z,1.67
2022-08-12T06:37:31.575Z,1.66
2022-08-12T06:38:34.342Z,1.57
2022-08-12T06:39:37.609Z,1.82
2022-08-12T06:40:40.911Z,1.70
2022-08-12T06:42:02.511Z,1.49
2022-08-12T06:42:48.617Z,1.67
2022-08-12T06:44:06.431Z,1.79
2022-08-12T06:44:55.923Z,1.71
2022-08-12T06:45:58.588Z,1.91
2022-08-12T06:47:01.262Z,1.77
2022-08-12T06:48:03.924Z,1.65
2022-08-12T06:49:06.616Z,1.81
2022-08-12T06:50:09.364Z,1.83
2022-08-12T06:51:12.035Z,1.75
2022-08-12T06:52:14.807Z,1.68
2022-08-12T06:53:17.371Z,1.88
2022-08-12T06:54:29.830Z,1.77
2022-08-12T06:55:24.775Z,1.81
2022-08-12T06:58:06.551Z,2.02
2022-08-12T06:58:50.282Z,1.96
2022-08-12T06:59:52.963Z,1.76
2022-08-12T07:00:55.787Z,2.06
2022-08-12T07:01:58.493Z,1.93
2022-08-12T07:03:01.282Z,1.78
2022-08-12T07:04:33.327Z,1.94
2022-08-12T07:05:09.674Z,2.10
2022-08-12T07:06:12.964Z,2.01
2022-08-12T07:07:15.650Z,1.88
2022-08-12T07:08:18.310Z,2.00
2022-08-12T07:10:04.628Z,2.18
2022-08-12T07:10:25.358Z,1.98
2022-08-12T07:11:28.257Z,2.12
2022-08-12T07:12:31.136Z,2.11
2022-08-12T07:13:33.802Z,2.32
2022-08-12T07:14:40.681Z,2.23
2022-08-12T07:15:40.673Z,2.26
2022-08-12T07:16:43.655Z,2.15
2022-08-12T07:17:46.328Z,2.28
2022-08-12T07:18:50.540Z,2.25
2022-08-12T07:19:53.194Z,2.20
2022-08-12T07:20:55.865Z,2.28
2022-08-12T07:22:02.050Z,2.26
2022-08-12T07:23:02.953Z,2.44
2022-08-12T07:24:05.610Z,2.35
2022-08-12T07:25:08.397Z,2.27
2022-08-12T07:26:11.063Z,2.45
2022-08-12T07:27:15.576Z,2.47
2022-08-12T07:28:18.351Z,2.28
2022-08-12T07:29:21.117Z,2.23
2022-08-12T07:30:24.285Z,2.51
2022-08-12T07:31:27.086Z,2.58
2022-08-12T07:32:29.841Z,2.45
2022-08-12T07:33:32.633Z,2.51
2022-08-12T07:34:35.393Z,2.43
2022-08-12T07:35:37.964Z,2.47
2022-08-12T07:36:40.529Z,2.43
2022-08-12T07:37:43.304Z,2.38
2022-08-12T07:38:45.966Z,2.63
2022-08-12T07:39:50.811Z,2.42
2022-08-12T07:40:52.645Z,2.79
2022-08-12T07:41:55.348Z,2.52
2022-08-12T07:42:58.013Z,2.65
2022-08-12T07:44:04.546Z,2.43
2022-08-12T07:45:04.749Z,2.82
2022-08-12T07:46:07.521Z,2.37
2022-08-12T07:47:10.290Z,2.39
2022-08-12T07:48:14.601Z,2.48
2022-08-12T07:49:17.373Z,2.29
2022-08-12T07:50:23.785Z,2.35
2022-08-12T07:51:25.438Z,2.38
2022-08-12T07:52:28.454Z,2.57
2022-08-12T07:53:31.235Z,3.10
2022-08-12T07:54:34.006Z,2.59
2022-08-12T07:55:36.786Z,2.52
2022-08-12T07:56:39.543Z,2.38
2022-08-12T07:57:42.323Z,2.58
2022-08-12T07:58:47.145Z,2.52
2022-08-12T07:59:50.168Z,2.84
2022-08-12T08:00:53.499Z,2.50
2022-08-12T08:01:56.244Z,2.45
2022-08-12T08:02:59.640Z,2.51
2022-08-12T08:04:02.720Z,2.41
2022-08-12T08:05:05.593Z,2.69
2022-08-12T08:06:08.570Z,2.55
2022-08-12T08:07:12.980Z,2.78
2022-08-12T08:08:15.860Z,2.38
2022-08-12T08:09:18.939Z,2.65
2022-08-12T08:10:22.017Z,2.35
2022-08-12T08:11:25.294Z,2.42
2022-08-12T08:12:28.380Z,2.59
2022-08-12T08:13:31.862Z,2.64
2022-08-12T08:14:34.979Z,2.65
2022-08-12T08:16:02.879Z,2.63
2022-08-12T08:16:42.026Z,2.74
2022-08-12T08:17:45.009Z,2.58
2022-08-12T08:18:48.289Z,2.65
2022-08-12T08:20:04.102Z,2.49
2022-08-12T08:20:55.886Z,2.64
2022-08-12T08:21:58.804Z,2.50
2022-08-12T08:23:01.936Z,2.47
2022-08-12T08:24:05.463Z,2.50
2022-08-12T08:25:20.438Z,2.64
2022-08-12T08:26:12.921Z,2.67
2022-08-12T08:27:16.005Z,2.50
2022-08-12T08:28:18.888Z,2.74
2022-08-12T08:29:21.846Z,2.84
2022-08-12T08:30:24.938Z,2.68
2022-08-12T08:31:27.800Z,3.04
2022-08-12T08:32:30.788Z,2.74
2022-08-12T08:34:09.502Z,2.99
2022-08-12T08:34:54.698Z,2.81
2022-08-12T08:35:46.438Z,3.02
2022-08-12T08:36:46.885Z,3.45
2022-08-12T08:37:51.191Z,3.03
2022-08-12T08:38:58.135Z,3.04
2022-08-12T08:39:58.685Z,2.92
2022-08-12T08:41:01.966Z,2.88
2022-08-12T08:42:17.945Z,2.95
2022-08-12T08:43:09.657Z,3.18
2022-08-12T08:44:12.754Z,3.31
2022-08-12T08:45:15.827Z,3.64
2022-08-12T08:46:19.119Z,3.42
2022-08-12T08:47:22.084Z,3.41
2022-08-12T08:48:25.261Z,3.75
2022-08-12T08:49:28.348Z,3.43
2022-08-12T08:50:31.521Z,3.32
2022-08-12T08:51:34.605Z,3.20
2022-08-12T08:52:40.064Z,3.25
2022-08-12T08:53:41.992Z,3.35
2022-08-12T08:54:46.621Z,3.36
2022-08-12T08:56:04.588Z,3.38
2022-08-12T08:56:53.997Z,3.53
2022-08-12T08:57:56.971Z,3.11
2022-08-12T08:59:01.070Z,3.18
2022-08-12T09:00:04.049Z,3.31
2022-08-12T09:01:06.723Z,4.01
2022-08-12T09:02:09.755Z,3.83
2022-08-12T09:05:07.020Z,3.76
2022-08-12T09:05:10.073Z,3.73
2022-08-12T09:05:25.432Z,3.54
2022-08-12T09:06:37.501Z,3.30
2022-08-12T09:07:58.973Z,3.37
2022-08-12T09:08:35.032Z,3.24
2022-08-12T09:10:02.244Z,3.39
2022-08-12T09:10:45.194Z,3.24
2022-08-12T09:12:07.110Z,3.40
2022-08-12T09:12:54.950Z,3.05
2022-08-12T09:15:00.070Z,3.31
2022-08-12T09:16:02.731Z,3.38
2022-08-12T09:17:06.223Z,3.52
2022-08-12T09:18:09.507Z,3.24
2022-08-12T09:19:26.911Z,3.83
2022-08-12T09:20:16.489Z,3.41
2022-08-12T09:21:19.361Z,3.48
2022-08-12T09:22:22.443Z,3.78
2022-08-12T09:23:58.325Z,3.85
2022-08-12T09:24:31.894Z,3.71
2022-08-12T09:25:35.061Z,3.69
2022-08-12T09:26:46.319Z,3.68
2022-08-12T09:28:18.169Z,3.19
2022-08-12T09:30:10.897Z,3.75
2022-08-12T09:30:57.193Z,3.73
2022-08-12T09:32:07.413Z,3.76
2022-08-12T09:33:14.448Z,3.75
2022-08-12T09:34:29.456Z,3.75
2022-08-12T09:35:22.088Z,3.63
2022-08-12T09:36:30.611Z,3.68
2022-08-12T09:37:22.580Z,3.97
2022-08-12T09:38:29.096Z,3.74
2022-08-12T09:40:05.969Z,4.13
2022-08-12T09:40:57.611Z,4.12
2022-08-12T09:42:09.477Z,4.39
2022-08-12T09:42:54.207Z,4.14
2022-08-12T09:43:53.990Z,3.88
2022-08-12T09:45:18.510Z,3.71
2022-08-12T09:46:06.630Z,3.90
2022-08-12T09:47:01.633Z,4.47
2022-08-12T09:48:06.242Z,4.14
2022-08-12T09:50:27.680Z,3.93
2022-08-12T09:51:37.676Z,3.95
2022-08-12T09:52:34.836Z,4.12
2022-08-12T09:53:40.030Z,3.99
2022-08-12T09:54:43.279Z,4.04
2022-08-12T09:55:57.313Z,4.26
2022-08-12T09:57:02.725Z,3.97
2022-08-12T09:58:44.983Z,4.18
2022-08-12T09:59:02.334Z,4.18
2022-08-12T10:00:16.083Z,4.11
2022-08-12T10:01:15.442Z,4.18
2022-08-12T10:02:44.629Z,4.04
2022-08-12T10:03:32.648Z,4.11
2022-08-12T10:04:23.225Z,4.06
2022-08-12T10:06:19.663Z,4.02
2022-08-12T10:06:32.364Z,4.29
2022-08-12T10:07:39.912Z,4.00
2022-08-12T10:08:39.370Z,4.11
2022-08-12T10:09:57.589Z,4.13
2022-08-12T10:10:46.348Z,3.83
2022-08-12T10:12:11.840Z,4.04
2022-08-12T10:13:07.058Z,4.11
2022-08-12T10:13:59.378Z,4.00
2022-08-12T10:15:02.525Z,4.03
2022-08-12T10:16:06.054Z,4.08
2022-08-12T10:17:09.393Z,4.17
2022-08-12T10:18:13.548Z,4.26
2022-08-12T10:19:17.693Z,4.30
2022-08-12T10:20:20.611Z,4.38
2022-08-12T10:21:23.729Z,3.83
2022-08-12T10:22:39.307Z,4.11
2022-08-12T10:23:40.212Z,4.03
2022-08-12T10:24:35.690Z,4.14
2022-08-12T10:26:34.058Z,4.32
2022-08-12T10:26:42.885Z,4.26
2022-08-12T10:28:03.431Z,4.01
2022-08-12T10:29:02.595Z,4.19
2022-08-12T10:30:37.236Z,4.21
2022-08-12T10:31:01.599Z,4.01
2022-08-12T10:32:21.723Z,3.97
2022-08-12T10:33:18.173Z,3.93
2022-08-12T10:34:24.006Z,3.96
2022-08-12T10:35:18.579Z,4.14
2022-08-12T10:36:21.456Z,4.07
2022-08-12T10:38:36.088Z,3.99
2022-08-12T10:38:37.134Z,4.24
2022-08-12T10:40:01.114Z,3.81
2022-08-12T10:40:39.301Z,3.99
2022-08-12T10:41:58.075Z,3.95
2022-08-12T10:42:46.490Z,4.04
2022-08-12T10:43:55.635Z,3.96
2022-08-12T10:44:54.074Z,4.09
2022-08-12T10:45:58.211Z,4.01
2022-08-12T10:47:01.178Z,4.12
2022-08-12T10:48:23.108Z,4.24
2022-08-12T10:50:03.422Z,4.01
2022-08-12T10:50:35.462Z,3.92
2022-08-12T10:52:05.423Z,3.91
2022-08-12T10:52:34.470Z,3.80
2022-08-12T10:53:43.728Z,4.13
2022-08-12T10:54:29.976Z,3.81
2022-08-12T10:55:32.848Z,3.61
2022-08-12T10:56:37.466Z,3.84
2022-08-12T10:58:15.374Z,3.76
2022-08-12T10:58:47.737Z,3.99
2022-08-12T11:00:34.305Z,3.69
2022-08-12T11:01:50.182Z,3.79
2022-08-12T11:04:24.604Z,3.74
2022-08-12T11:04:25.348Z,3.87
2022-08-12T11:04:31.296Z,3.93
2022-08-12T11:07:05.151Z,3.51
2022-08-12T11:07:07.812Z,3.61
2022-08-12T11:08:35.127Z,3.88
2022-08-12T11:08:38.249Z,3.94
2022-08-12T11:09:56.050Z,4.14
2022-08-12T11:10:40.580Z,3.84
2022-08-12T11:12:34.547Z,4.01
2022-08-12T11:12:59.306Z,4.04
2022-08-12T11:13:52.550Z,4.02
2022-08-12T11:14:55.315Z,4.04
2022-08-12T11:16:19.856Z,3.92
2022-08-12T11:17:34.693Z,4.39
2022-08-12T11:18:19.193Z,3.93
2022-08-12T11:19:22.517Z,4.21
2022-08-12T11:20:30.877Z,4.34
2022-08-12T11:21:56.326Z,4.16
2022-08-12T11:22:34.319Z,4.18
2022-08-12T11:23:37.771Z,4.39
2022-08-12T11:24:40.437Z,4.55
2022-08-12T11:25:57.701Z,4.34
2022-08-12T11:26:49.205Z,4.41
2022-08-12T11:27:52.131Z,4.12
2022-08-12T11:28:59.234Z,4.33
2022-08-12T11:30:05.623Z,4.29
2022-08-12T11:31:03.627Z,4.61
2022-08-12T11:32:06.501Z,4.37
2022-08-12T11:33:11.941Z,4.26
2022-08-12T11:34:51.505Z,4.13
2022-08-12T11:35:18.191Z,4.44
2022-08-12T11:36:21.771Z,4.17
2022-08-12T11:37:26.438Z,4.44
2022-08-12T11:38:29.550Z,4.45
2022-08-12T11:40:36.730Z,4.65
2022-08-12T11:41:43.124Z,4.61
2022-08-12T11:42:46.347Z,4.77
2022-08-12T11:43:50.766Z,4.86
2022-08-12T11:44:54.071Z,5.17
2022-08-12T11:45:56.901Z,4.47
2022-08-12T11:46:59.615Z,4.74
2022-08-12T11:48:02.592Z,4.67
2022-08-12T11:49:05.363Z,4.82
2022-08-12T11:50:08.243Z,5.00
2022-08-12T11:51:12.650Z,4.64
2022-08-12T11:52:17.230Z,4.72
2022-08-12T11:53:56.596Z,4.67
2022-08-12T11:54:25.071Z,4.67
2022-08-12T11:55:29.505Z,4.80
2022-08-12T11:56:38.550Z,5.07
2022-08-12T11:58:18.384Z,5.20
2022-08-12T12:02:02.558Z,5.31
2022-08-12T12:02:58.693Z,5.09
2022-08-12T12:04:01.490Z,4.62
2022-08-12T12:05:04.978Z,4.72
2022-08-12T12:06:08.466Z,5.01
2022-08-12T12:07:11.954Z,4.82
2022-08-12T12:08:40.523Z,5.04
2022-08-12T12:09:21.187Z,4.80
2022-08-12T12:10:25.600Z,5.08
2022-08-12T12:11:49.162Z,4.84
2022-08-12T12:12:34.319Z,4.91
2022-08-12T12:14:08.101Z,5.11
2022-08-12T12:14:42.325Z,5.30
2022-08-12T12:15:47.382Z,5.35
2022-08-12T12:16:50.927Z,5.42
2022-08-12T12:17:55.071Z,5.35
2022-08-12T12:18:57.919Z,4.99
2022-08-12T12:20:00.790Z,5.34
2022-08-12T12:21:03.969Z,5.32
2022-08-12T12:22:06.748Z,5.85
2022-08-12T12:23:28.684Z,5.83
2022-08-12T12:24:14.141Z,5.67
2022-08-12T12:25:19.824Z,6.58
2022-08-12T12:26:34.877Z,6.87
2022-08-12T12:27:39.360Z,6.29
2022-08-12T12:28:38.061Z,6.65
2022-08-12T12:30:18.523Z,6.30
2022-08-12T12:30:41.015Z,6.45
2022-08-12T12:32:10.988Z,7.14
2022-08-12T12:32:53.427Z,7.26
2022-08-12T12:33:57.205Z,6.86
2022-08-12T12:35:13.958Z,6.62
2022-08-12T12:36:17.020Z,6.49
2022-08-12T12:37:07.583Z,6.61
2022-08-12T12:38:12.527Z,6.40
2022-08-12T12:39:15.712Z,6.39
2022-08-12T12:40:20.305Z,6.31
2022-08-12T12:41:48.170Z,6.58
2022-08-12T12:42:45.446Z,6.81
2022-08-12T12:43:43.661Z,6.76
2022-08-12T12:44:41.916Z,6.41
2022-08-12T12:45:44.656Z,6.24
2022-08-12T12:46:45.644Z,6.56
2022-08-12T12:47:48.513Z,6.99
2022-08-12T12:48:51.385Z,6.87
2022-08-12T12:49:54.378Z,6.56
2022-08-12T12:50:57.547Z,6.58
2022-08-12T12:52:18.623Z,6.92
2022-08-12T12:53:04.838Z,6.34
2022-08-12T12:54:10.000Z,6.40
2022-08-12T12:55:11.706Z,6.55
2022-08-12T12:56:16.026Z,6.32
2022-08-12T12:57:35.868Z,6.72
2022-08-12T12:58:23.298Z,7.10
2022-08-12T12:59:33.758Z,6.63
2022-08-12T13:00:30.487Z,7.11
2022-08-12T13:01:38.299Z,6.84
2022-08-12T13:02:37.676Z,7.13
2022-08-12T13:03:49.484Z,7.28
2022-08-12T13:04:44.857Z,7.36
2022-08-12T13:05:53.728Z,7.11
2022-08-12T13:06:53.473Z,7.39
2022-08-12T13:08:01.384Z,7.06
2022-08-12T13:09:02.485Z,6.91
2022-08-12T13:10:05.061Z,6.90
2022-08-12T13:11:07.942Z,6.89
2022-08-12T13:12:10.850Z,7.47
2022-08-12T13:14:06.834Z,7.14
2022-08-12T13:14:28.659Z,6.55
2022-08-12T13:15:43.158Z,6.79
2022-08-12T13:16:27.542Z,6.76
2022-08-12T13:17:45.094Z,6.72
2022-08-12T13:18:35.027Z,6.75
2022-08-12T13:19:43.409Z,7.05
2022-08-12T13:20:43.197Z,7.24
2022-08-12T13:21:46.104Z,7.46
2022-08-12T13:22:48.987Z,7.62
2022-08-12T13:23:53.464Z,7.91
2022-08-12T13:24:57.172Z,7.77
2022-08-12T13:26:00.163Z,7.49
2022-08-12T13:27:02.934Z,7.71
2022-08-12T13:28:05.936Z,8.18
2022-08-12T13:29:11.678Z,7.44
2022-08-12T13:30:14.342Z,7.49
2022-08-12T13:31:18.734Z,6.98
2022-08-12T13:32:31.497Z,6.93
2022-08-12T13:33:28.500Z,6.87
2022-08-12T13:34:34.521Z,6.61
2022-08-12T13:36:04.979Z,6.77
2022-08-12T13:36:39.562Z,7.07
2022-08-12T13:37:43.971Z,7.32
2022-08-12T13:38:54.178Z,7.22
2022-08-12T13:39:51.850Z,6.99
2022-08-12T13:40:56.082Z,6.90
2022-08-12T13:41:58.747Z,7.37
2022-08-12T13:43:02.106Z,7.28
2022-08-12T13:44:05.109Z,6.82
2022-08-12T13:45:08.090Z,6.78
2022-08-12T13:46:12.263Z,7.58
2022-08-12T13:47:19.615Z,7.23
2022-08-12T13:48:20.296Z,7.59
2022-08-12T13:49:54.666Z,7.20
2022-08-12T13:50:27.888Z,7.78
2022-08-12T13:51:41.218Z,7.75
2022-08-12T13:52:35.173Z,6.99
2022-08-12T13:53:54.770Z,7.41
2022-08-12T13:54:42.260Z,6.53
2022-08-12T13:55:44.921Z,7.15
2022-08-12T13:56:49.919Z,6.92
2022-08-12T13:57:52.003Z,6.26
2022-08-12T13:58:54.676Z,6.09
2022-08-12T14:00:00.870Z,6.04
2022-08-12T14:01:02.063Z,5.87
2022-08-12T14:02:04.732Z,6.04
2022-08-12T14:03:10.422Z,6.00
2022-08-12T14:04:13.281Z,5.81
2022-08-12T14:05:31.236Z,5.52
2022-08-12T14:06:20.563Z,5.69
2022-08-12T14:07:23.614Z,6.13
2022-08-12T14:08:28.125Z,5.80
2022-08-12T14:09:32.431Z,5.63
2022-08-12T14:10:36.945Z,5.42
2022-08-12T14:11:40.447Z,5.67
2022-08-12T14:12:54.507Z,6.10
2022-08-12T14:14:03.906Z,5.91
2022-08-12T14:14:53.363Z,5.26